Cavalier Royal — 813919 — position and weather

sailwx.info

Track history (hours):
 
Tides and Currents Weather Stations Pressure Air Temp Water Temp Dewpoint Dewpoint Depression Visibility Wind Speed Wind Dir Waves Ship Positions

Cavalier Royal

Last reported at 2017-Oct-18 15:51 UTC. Time now 2017-Dec-12 23:52 UTC.
Position N 26°06' W 080°10'.
Warning: this ship's position is 55 days out of date.

Type: Ship. MMSI: 316027341.

Date/timePositionNaut miles runAvg speedWind from/ knotsBaromVisibWave heightAir tempDewpointWater temp
2017-Oct-18 15:51N 26°06' W 080°10'0 0.0
2017-Oct-18 15:18N 26°06' W 080°10'0 0.0
2017-Oct-18 14:54N 26°06' W 080°10'0 0.0
2017-Oct-18 13:48N 26°06' W 080°10'0 0.0
2017-Oct-18 13:24N 26°06' W 080°10'0 0.0
2017-Oct-18 12:54N 26°06' W 080°10'0 0.0
2017-Oct-18 12:24N 26°06' W 080°10'0 0.0
2017-Oct-18 11:54N 26°06' W 080°10'0 0.0
2017-Oct-18 11:21N 26°06' W 080°10'0 0.0
2017-Oct-18 10:57N 26°06' W 080°10'0 0.0
2017-Oct-18 10:27N 26°06' W 080°10'0 0.0
2017-Oct-18 09:57N 26°06' W 080°10'0 0.0
2017-Oct-18 09:27N 26°06' W 080°10'0 0.0
2017-Oct-18 08:57N 26°06' W 080°10'0 0.0
2017-Oct-18 08:30N 26°06' W 080°10'0 0.0
2017-Oct-18 08:00N 26°06' W 080°10'0 0.0
2017-Oct-18 07:30N 26°06' W 080°10'0 0.0
2017-Oct-18 07:00N 26°06' W 080°10'0 0.0
2017-Oct-18 06:30N 26°06' W 080°10'0 0.0
2017-Oct-18 06:00N 26°06' W 080°10'0 0.0
2017-Oct-18 05:30N 26°06' W 080°10'0 0.0
2017-Oct-18 05:00N 26°06' W 080°10'0 0.0
2017-Oct-18 04:30N 26°06' W 080°10'0 0.0
2017-Oct-18 04:00N 26°06' W 080°10'0 0.0
2017-Oct-18 03:18N 26°06' W 080°10'0 0.0
2017-Oct-18 03:00N 26°06' W 080°10'0 0.0
2017-Oct-18 02:30N 26°06' W 080°10'0 0.0
2017-Oct-18 02:00N 26°06' W 080°10'0 0.0
2017-Oct-18 01:21N 26°06' W 080°10'0 0.0
2017-Oct-18 00:51N 26°06' W 080°10'  
2017-Oct-08 18:33N 26°15' W 080°04'411.4
2017-Oct-08 18:11N 26°11' W 080°05'310.7
2017-Oct-08 17:55N 26°08' W 080°05'3 6.7
2017-Oct-08 17:30N 26°06' W 080°07'2 3.2
2017-Oct-08 16:58N 26°06' W 080°05'2 5.0
2017-Oct-08 16:29N 26°09' W 080°04'2 4.7
2017-Oct-08 15:58N 26°11' W 080°03'  
Track history (hours):
 
Tides and Currents Weather Stations Pressure Air Temp Water Temp Dewpoint Dewpoint Depression Visibility Wind Speed Wind Dir Waves Ship Positions

Cavalier Royal

Last reported at 2017-Oct-18 15:51 UTC. Time now 2017-Dec-12 23:52 UTC.
Position N 26°06' W 080°10'.
Warning: this ship's position is 55 days out of date.

Type: Ship. MMSI: 316027341.

Date/timePositionNaut miles runAvg speedWind from/ knotsBaromVisibWave heightAir tempDewpointWater temp
2017-Oct-18 15:51N 26°06' W 080°10'0 0.0
2017-Oct-18 15:18N 26°06' W 080°10'0 0.0
2017-Oct-18 14:54N 26°06' W 080°10'0 0.0
2017-Oct-18 13:48N 26°06' W 080°10'0 0.0
2017-Oct-18 13:24N 26°06' W 080°10'0 0.0
2017-Oct-18 12:54N 26°06' W 080°10'0 0.0
2017-Oct-18 12:24N 26°06' W 080°10'0 0.0
2017-Oct-18 11:54N 26°06' W 080°10'0 0.0
2017-Oct-18 11:21N 26°06' W 080°10'0 0.0
2017-Oct-18 10:57N 26°06' W 080°10'0 0.0
2017-Oct-18 10:27N 26°06' W 080°10'0 0.0
2017-Oct-18 09:57N 26°06' W 080°10'0 0.0
2017-Oct-18 09:27N 26°06' W 080°10'0 0.0
2017-Oct-18 08:57N 26°06' W 080°10'0 0.0
2017-Oct-18 08:30N 26°06' W 080°10'0 0.0
2017-Oct-18 08:00N 26°06' W 080°10'0 0.0
2017-Oct-18 07:30N 26°06' W 080°10'0 0.0
2017-Oct-18 07:00N 26°06' W 080°10'0 0.0
2017-Oct-18 06:30N 26°06' W 080°10'0 0.0
2017-Oct-18 06:00N 26°06' W 080°10'0 0.0
2017-Oct-18 05:30N 26°06' W 080°10'0 0.0
2017-Oct-18 05:00N 26°06' W 080°10'0 0.0
2017-Oct-18 04:30N 26°06' W 080°10'0 0.0
2017-Oct-18 04:00N 26°06' W 080°10'0 0.0
2017-Oct-18 03:18N 26°06' W 080°10'0 0.0
2017-Oct-18 03:00N 26°06' W 080°10'0 0.0
2017-Oct-18 02:30N 26°06' W 080°10'0 0.0
2017-Oct-18 02:00N 26°06' W 080°10'0 0.0
2017-Oct-18 01:21N 26°06' W 080°10'0 0.0
2017-Oct-18 00:51N 26°06' W 080°10'  
2017-Oct-08 18:33N 26°15' W 080°04'411.4
2017-Oct-08 18:11N 26°11' W 080°05'310.7
2017-Oct-08 17:55N 26°08' W 080°05'3 6.7
2017-Oct-08 17:30N 26°06' W 080°07'2 3.2
2017-Oct-08 16:58N 26°06' W 080°05'2 5.0
2017-Oct-08 16:29N 26°09' W 080°04'2 4.7
2017-Oct-08 15:58N 26°11' W 080°03'  

Dump ship's entire track history